Terminal Aerodrome Forecast
Issued by NWS

Home | Current Version | Previous Version | Text Only | Print | Product List | Glossary On
Versions: 1 2 3 4 5 6 7 8 9 10 11 12 13 14 15 16
000
FTUS43 KDLH 201700
TAFBRD
TAF
KBRD 201724Z 2018/2118 15005KT P6SM SKC
     FM210000 17007KT P6SM SKC
     FM211000 23007KT P6SM SCT040
     FM211400 33015G27KT P6SM SCT040=

USA.gov is the U.S. government's official web portal to all federal, state and local government web resources and services.